KMTH/MTH METAR and TAF weather

Enter ICAO airport designator
Station Type Date Time Source
KMTH METAR 2020/08/07 11:53 UTC NOAA

KMTH 071153Z AUTO 08004KT 10SM CLR 29/26 A3004 RMK AO2 SLP171 T02940256 10294 20283 53009


Station Type Date Time Source
KMTH Decoded METAR 2020/08/07 11:53 UTC NOAA

MARATHON AIRPORT, FL, United States (KMTH) 24-44N 81-03W 2M
Aug 07, 2020 - 07:53 AM EDT / 2020.08.07 1153 UTC
Wind: from the E (080 degrees) at 5 MPH (4 KT):0
Visibility: 10 mile(s):0
Sky conditions: clear
Temperature: 84.9 F (29.4 C)
Dew Point: 78.1 F (25.6 C)
Relative Humidity: 80%
Pressure (altimeter): 30.04 in. Hg (1017 hPa)
Pressure tendency: 0.03 inches (0.9 hPa) higher than three hours ago
ob: KMTH 071153Z AUTO 08004KT 10SM CLR 29/26 A3004 RMK AO2 SLP171 T02940256 10294 20283 53009
cycle: 12

Station Type Date Time Source
KMTH TAF 2020/08/07 12:48 UTC NOAA

TAF KMTH 071146Z 0712/0812 10006KT P6SM FEW022

Example: see airport list